Time;durP1;ratioP1;P1;durP2;ratioP2;P2;SDS_P1;SDS_P2;PMS_P1;PMS_P2;Temp;Humidity;BMP_temperature;BMP_pressure;BME280_temperature;BME280_humidity;BME280_pressure;Samples;Min_cycle;Max_cycle;Signal;HPM_P1;HPM_P2
2023/12/11 00:01:55;;;;;;;14.05;2.83;;;27.20;69.90;;;;;;5014723;28;20377;-82
2023/12/11 00:04:22;;;;;;;17.83;3.60;;;27.30;69.70;;;;;;5018571;28;20064;-80
2023/12/11 00:06:50;;;;;;;13.43;3.33;;;27.30;68.90;;;;;;5029453;28;20612;-78
2023/12/11 00:09:17;;;;;;;17.65;3.38;;;27.20;69.00;;;;;;5007417;28;20053;-79
2023/12/11 00:11:44;;;;;;;15.50;3.60;;;27.30;68.90;;;;;;5015784;28;20029;-79
2023/12/11 00:14:12;;;;;;;12.13;3.15;;;27.30;68.80;;;;;;5014675;28;20034;-79
2023/12/11 00:16:39;;;;;;;33.25;4.25;;;27.30;69.00;;;;;;5014845;28;20026;-82
2023/12/11 00:19:07;;;;;;;10.05;2.60;;;27.30;69.10;;;;;;5015590;28;20030;-82
2023/12/11 00:21:35;;;;;;;10.40;2.75;;;27.50;69.30;;;;;;5011317;28;20068;-80
2023/12/11 00:24:03;;;;;;;14.68;3.20;;;27.60;68.80;;;;;;5017893;28;20034;-82
2023/12/11 00:26:30;;;;;;;14.85;3.17;;;27.60;68.60;;;;;;4996767;28;20061;-78
2023/12/11 00:28:58;;;;;;;16.10;3.25;;;27.60;68.30;;;;;;4995831;28;20397;-83
2023/12/11 00:31:25;;;;;;;17.33;3.33;;;27.60;68.30;;;;;;5013857;28;20079;-81
2023/12/11 00:33:52;;;;;;;12.05;2.95;;;27.60;68.10;;;;;;5015150;28;20072;-80
2023/12/11 00:36:20;;;;;;;24.15;3.95;;;27.50;68.30;;;;;;5033032;28;20025;-78
2023/12/11 00:38:48;;;;;;;14.85;3.00;;;27.50;68.60;;;;;;5026577;28;20036;-79
2023/12/11 00:41:16;;;;;;;16.88;3.25;;;27.50;68.50;;;;;;5031269;28;20048;-78
2023/12/11 00:43:44;;;;;;;17.13;2.97;;;27.60;68.30;;;;;;5005241;28;20028;-80
2023/12/11 00:46:16;;;;;;;15.38;3.47;;;27.60;68.60;;;;;;5033995;28;20060;-80
2023/12/11 00:48:43;;;;;;;16.05;2.92;;;27.60;68.30;;;;;;5029486;28;20033;-81
2023/12/11 00:51:21;;;;;;;13.60;2.83;;;27.70;68.50;;;;;;5024084;28;20057;-84
2023/12/11 00:53:49;;;;;;;16.15;3.05;;;27.80;67.50;;;;;;5028347;28;20381;-83
2023/12/11 00:56:19;;;;;;;13.75;2.65;;;27.70;67.50;;;;;;5015244;28;20037;-83
2023/12/11 00:58:46;;;;;;;12.93;2.85;;;27.70;67.70;;;;;;5032124;28;20067;-82
2023/12/11 01:01:13;;;;;;;15.45;2.95;;;27.70;67.90;;;;;;5032903;28;20030;-83
2023/12/11 01:03:41;;;;;;;9.60;2.30;;;27.80;67.90;;;;;;5024368;28;20042;-80
2023/12/11 01:06:08;;;;;;;10.05;2.53;;;27.90;67.70;;;;;;5020579;28;20025;-81
2023/12/11 01:08:39;;;;;;;12.25;2.65;;;28.00;67.80;;;;;;5013128;28;20080;-83
2023/12/11 01:11:10;;;;;;;12.85;2.85;;;28.00;66.90;;;;;;5016373;28;20037;-82
2023/12/11 01:13:37;;;;;;;17.40;3.03;;;28.00;66.50;;;;;;5026710;28;20053;-81
2023/12/11 01:16:05;;;;;;;12.10;2.80;;;27.90;66.50;;;;;;5034123;28;20136;-83
2023/12/11 01:18:32;;;;;;;12.05;2.90;;;27.80;66.70;;;;;;5032585;28;20365;-82
2023/12/11 01:21:00;;;;;;;12.60;2.80;;;27.80;66.70;;;;;;5033540;28;20480;-80
2023/12/11 01:23:30;;;;;;;16.00;3.28;;;27.80;66.90;;;;;;5030606;28;20477;-83
2023/12/11 01:25:58;;;;;;;15.45;3.33;;;27.90;67.20;;;;;;5017202;28;20018;-82
2023/12/11 01:28:28;;;;;;;11.98;3.03;;;28.00;67.00;;;;;;5031620;28;20033;-79
2023/12/11 01:30:55;;;;;;;13.82;2.42;;;28.00;66.60;;;;;;5032181;28;20034;-80
2023/12/11 01:33:23;;;;;;;13.07;3.08;;;28.10;66.60;;;;;;5028267;28;20022;-82
2023/12/11 01:35:51;;;;;;;16.60;3.10;;;28.10;66.60;;;;;;5033926;28;20044;-78
2023/12/11 01:38:19;;;;;;;16.13;3.00;;;28.20;66.50;;;;;;5015696;28;20101;-78
2023/12/11 01:40:49;;;;;;;13.40;3.08;;;28.30;66.40;;;;;;5026070;28;20057;-80
2023/12/11 01:43:24;;;;;;;11.15;2.95;;;28.20;65.60;;;;;;5033867;28;20067;-78
2023/12/11 01:46:15;;;;;;;10.32;3.28;;;28.00;66.00;;;;;;5034030;28;20017;-82
2023/12/11 01:48:42;;;;;;;10.25;2.35;;;28.10;66.20;;;;;;5010834;28;20068;-78
2023/12/11 01:51:11;;;;;;;13.85;2.63;;;28.10;66.50;;;;;;5002042;28;20405;-78
2023/12/11 01:53:42;;;;;;;12.98;2.58;;;28.20;66.70;;;;;;5013543;28;20037;-80
2023/12/11 01:56:10;;;;;;;13.25;2.95;;;28.20;66.00;;;;;;5006687;28;20586;-78
2023/12/11 01:58:41;;;;;;;9.88;2.85;;;28.20;66.00;;;;;;5027435;28;20029;-79
2023/12/11 02:01:11;;;;;;;11.30;2.63;;;28.10;66.10;;;;;;5033621;28;20548;-78
2023/12/11 02:03:38;;;;;;;12.32;2.53;;;28.20;66.20;;;;;;5025440;28;20519;-79
2023/12/11 02:06:06;;;;;;;13.10;3.00;;;28.20;66.30;;;;;;5033010;28;20032;-78
2023/12/11 02:08:34;;;;;;;10.60;2.65;;;28.20;65.90;;;;;;5024265;28;20030;-77
2023/12/11 02:11:03;;;;;;;12.57;2.63;;;28.30;66.20;;;;;;5013551;28;20018;-77
2023/12/11 02:13:30;;;;;;;9.15;2.80;;;28.40;66.00;;;;;;5016352;28;20524;-78
2023/12/11 02:15:58;;;;;;;11.48;2.90;;;28.40;65.60;;;;;;5028788;28;20357;-80
2023/12/11 02:18:25;;;;;;;12.82;2.70;;;28.40;65.40;;;;;;5030598;28;20064;-79
2023/12/11 02:20:52;;;;;;;13.48;2.90;;;28.50;65.10;;;;;;5032884;28;20108;-80
2023/12/11 02:23:27;;;;;;;13.13;2.90;;;28.50;64.80;;;;;;5033487;28;20357;-81
2023/12/11 02:26:12;;;;;;;13.80;2.73;;;28.50;64.90;;;;;;5033224;28;20021;-83
2023/12/11 02:28:39;;;;;;;10.77;2.53;;;28.60;64.80;;;;;;5031103;28;20381;-82
2023/12/11 02:31:07;;;;;;;17.02;3.55;;;28.50;64.80;;;;;;5033199;28;20029;-84
2023/12/11 02:33:34;;;;;;;12.40;3.67;;;28.50;64.90;;;;;;5020080;28;20061;-80
2023/12/11 02:36:02;;;;;;;9.10;3.25;;;28.50;64.70;;;;;;5013244;28;20566;-79
2023/12/11 02:38:30;;;;;;;11.63;2.97;;;28.50;64.80;;;;;;5013399;28;20485;-78
2023/12/11 02:40:59;;;;;;;13.98;3.33;;;28.40;64.80;;;;;;5028962;28;20025;-81
2023/12/11 02:43:29;;;;;;;14.75;3.45;;;28.40;64.70;;;;;;5032761;28;20160;-83
2023/12/11 02:46:00;;;;;;;12.23;3.20;;;28.40;64.80;;;;;;5032926;28;20033;-82
2023/12/11 02:48:27;;;;;;;13.63;3.65;;;28.40;64.90;;;;;;5022634;28;20050;-80
2023/12/11 02:50:55;;;;;;;14.38;3.75;;;28.40;64.60;;;;;;5013179;28;20058;-81
2023/12/11 02:53:24;;;;;;;12.93;4.07;;;28.40;65.10;;;;;;5013644;28;20483;-87
2023/12/11 02:55:51;;;;;;;13.95;4.00;;;28.40;64.50;;;;;;5013169;28;20485;-86
2023/12/11 02:58:18;;;;;;;12.65;4.28;;;28.50;64.90;;;;;;5014909;28;20034;-87
2023/12/11 03:00:46;;;;;;;13.43;4.20;;;28.50;64.80;;;;;;5029665;28;20026;-77
2023/12/11 03:03:13;;;;;;;10.77;4.00;;;28.60;64.70;;;;;;5032548;28;20029;-87
2023/12/11 03:05:41;;;;;;;15.38;4.43;;;28.60;64.50;;;;;;5033002;28;20033;-81
2023/12/11 03:08:08;;;;;;;13.80;4.43;;;28.60;64.10;;;;;;5021635;28;20048;-81
2023/12/11 03:10:35;;;;;;;11.80;4.07;;;28.60;63.70;;;;;;5015787;28;20057;-79
2023/12/11 03:13:03;;;;;;;12.57;3.92;;;28.70;64.20;;;;;;5023311;28;20034;-80
2023/12/11 03:15:32;;;;;;;8.95;3.78;;;28.70;63.20;;;;;;5021265;28;20034;-85
2023/12/11 03:18:00;;;;;;;10.90;3.63;;;28.60;63.40;;;;;;5023190;28;20037;-83
2023/12/11 03:20:27;;;;;;;11.50;3.60;;;28.60;63.40;;;;;;5033517;28;20091;-86
2023/12/11 03:22:54;;;;;;;15.88;3.25;;;28.60;63.40;;;;;;5027088;28;20165;-85
2023/12/11 03:25:22;;;;;;;8.90;3.45;;;28.60;63.30;;;;;;5012456;28;20137;-86
2023/12/11 03:27:49;;;;;;;15.52;3.38;;;28.50;63.30;;;;;;5019232;28;20392;-79
2023/12/11 03:30:17;;;;;;;10.50;2.53;;;28.60;63.00;;;;;;5018171;28;20100;-83
2023/12/11 03:32:44;;;;;;;12.48;2.92;;;28.60;63.00;;;;;;5030488;28;20029;-89
2023/12/11 03:35:18;;;;;;;8.38;2.63;;;28.60;63.30;;;;;;5029889;28;20121;-88
2023/12/11 03:37:45;;;;;;;11.00;2.85;;;28.70;63.50;;;;;;5016897;28;20042;-87
2023/12/11 03:40:14;;;;;;;14.88;3.08;;;28.80;63.20;;;;;;5023132;28;20040;-88
2023/12/11 03:42:41;;;;;;;14.23;2.95;;;28.80;63.20;;;;;;5016989;28;20045;-87
2023/12/11 03:45:09;;;;;;;12.02;2.40;;;28.90;63.20;;;;;;5023657;28;20026;-87
2023/12/11 03:47:36;;;;;;;9.07;2.40;;;28.90;63.20;;;;;;5016791;28;20071;-88
2023/12/11 03:50:04;;;;;;;7.25;2.30;;;29.00;63.10;;;;;;5016576;28;20041;-84
2023/12/11 03:52:31;;;;;;;9.35;2.63;;;29.10;62.70;;;;;;5022179;28;20151;-87
2023/12/11 03:54:59;;;;;;;8.00;2.30;;;29.10;62.00;;;;;;5035804;28;20542;-86
2023/12/11 03:57:26;;;;;;;7.72;2.10;;;29.10;62.30;;;;;;5033211;28;20083;-87
2023/12/11 03:59:53;;;;;;;9.32;2.30;;;29.20;62.50;;;;;;5027527;28;20382;-85
2023/12/11 04:02:21;;;;;;;10.65;2.60;;;29.20;61.70;;;;;;5036011;28;20017;-87
2023/12/11 04:04:48;;;;;;;9.52;2.25;;;29.20;62.40;;;;;;5017786;28;20045;-86
2023/12/11 04:07:16;;;;;;;8.05;2.35;;;29.30;62.20;;;;;;5015833;28;20034;-87
2023/12/11 04:09:43;;;;;;;10.70;2.65;;;29.30;62.20;;;;;;5025544;28;20493;-85
2023/12/11 04:12:13;;;;;;;10.32;2.80;;;29.30;62.10;;;;;;5030727;28;20044;-86
2023/12/11 04:14:41;;;;;;;10.05;2.90;;;29.30;61.80;;;;;;5016112;28;20405;-86
2023/12/11 04:17:08;;;;;;;8.55;2.38;;;29.30;61.70;;;;;;5015344;28;20030;-83
2023/12/11 04:19:35;;;;;;;8.48;2.53;;;29.30;61.70;;;;;;5013661;28;20366;-88
2023/12/11 04:22:03;;;;;;;8.70;2.45;;;29.30;61.30;;;;;;5016076;28;20025;-80
2023/12/11 04:24:30;;;;;;;7.65;2.33;;;29.20;61.60;;;;;;5015564;28;20049;-76
2023/12/11 04:26:57;;;;;;;6.50;2.05;;;29.10;62.10;;;;;;5015535;28;20524;-87
2023/12/11 04:29:25;;;;;;;8.27;2.30;;;29.20;62.30;;;;;;5019698;28;20084;-76
2023/12/11 04:31:52;;;;;;;10.88;2.60;;;29.20;62.00;;;;;;5035037;28;20021;-77
2023/12/11 04:34:20;;;;;;;10.55;2.40;;;29.20;62.00;;;;;;5025638;28;20025;-82
2023/12/11 04:36:50;;;;;;;9.23;2.15;;;29.20;61.80;;;;;;5035214;28;20079;-79
2023/12/11 04:39:17;;;;;;;10.77;2.67;;;29.30;61.70;;;;;;5025881;28;20022;-79
2023/12/11 04:41:46;;;;;;;8.13;2.10;;;29.30;61.70;;;;;;5034356;28;20408;-76
2023/12/11 04:44:13;;;;;;;12.18;2.55;;;29.30;61.60;;;;;;5014592;28;20041;-83
2023/12/11 04:46:41;;;;;;;9.80;2.42;;;29.40;61.40;;;;;;5014268;28;20540;-79
2023/12/11 04:49:08;;;;;;;6.68;2.22;;;29.30;60.80;;;;;;5018018;28;20038;-77
2023/12/11 04:51:35;;;;;;;13.40;2.70;;;29.30;61.20;;;;;;5035615;28;20021;-85
2023/12/11 04:54:03;;;;;;;10.13;2.40;;;29.30;60.70;;;;;;5027835;28;20045;-81
2023/12/11 04:56:30;;;;;;;8.50;2.53;;;29.30;61.10;;;;;;5033264;28;20025;-80
2023/12/11 04:58:58;;;;;;;7.68;2.00;;;29.30;60.80;;;;;;5029120;28;20354;-81
2023/12/11 05:01:26;;;;;;;10.27;2.45;;;29.30;61.00;;;;;;5025491;28;20105;-83
2023/12/11 05:03:54;;;;;;;8.90;2.08;;;29.40;61.00;;;;;;5019292;28;20497;-86
2023/12/11 05:06:21;;;;;;;7.30;2.00;;;29.40;60.70;;;;;;5028408;28;20037;-81
2023/12/11 05:08:48;;;;;;;12.43;2.33;;;29.40;60.70;;;;;;5035018;28;20048;-81
2023/12/11 05:11:16;;;;;;;9.48;2.20;;;29.40;60.70;;;;;;5019360;28;20095;-84
2023/12/11 05:13:43;;;;;;;9.88;2.83;;;29.40;60.50;;;;;;5013513;28;20096;-88
2023/12/11 05:16:10;;;;;;;12.25;2.78;;;29.30;60.80;;;;;;5030109;28;20034;-79
2023/12/11 05:18:38;;;;;;;7.88;2.22;;;29.40;60.60;;;;;;5015246;28;20032;-89
2023/12/11 05:21:13;;;;;;;8.23;2.67;;;29.30;61.10;;;;;;5013111;28;20563;-86
2023/12/11 05:23:40;;;;;;;10.00;2.40;;;29.40;61.30;;;;;;5022071;28;20420;-80
2023/12/11 05:26:07;;;;;;;9.65;2.13;;;29.50;61.50;;;;;;5023302;28;20183;-85
2023/12/11 05:28:35;;;;;;;8.57;2.20;;;29.50;61.70;;;;;;5015970;28;20042;-77
2023/12/11 05:31:02;;;;;;;6.80;2.13;;;29.50;61.50;;;;;;5010130;28;20457;-89
2023/12/11 05:33:29;;;;;;;11.38;2.65;;;29.50;61.60;;;;;;5015611;28;20156;-84
2023/12/11 05:35:57;;;;;;;9.65;2.33;;;29.40;61.40;;;;;;5014095;28;20556;-87
2023/12/11 05:38:25;;;;;;;8.18;2.30;;;29.40;62.00;;;;;;5016230;28;20492;-82
2023/12/11 05:40:52;;;;;;;11.65;2.33;;;29.30;62.20;;;;;;5018565;28;20029;-86
2023/12/11 05:43:19;;;;;;;9.70;2.47;;;29.30;62.10;;;;;;5014753;28;20034;-89
2023/12/11 05:45:47;;;;;;;8.32;2.33;;;29.20;62.30;;;;;;5014534;28;20117;-80
2023/12/11 05:48:14;;;;;;;12.25;2.42;;;29.10;62.00;;;;;;5013585;28;20092;-87
2023/12/11 05:50:41;;;;;;;5.50;1.85;;;29.00;62.20;;;;;;5014406;28;20032;-88
2023/12/11 05:53:12;;;;;;;6.20;2.22;;;29.00;62.50;;;;;;5022325;28;20025;-79
2023/12/11 05:55:40;;;;;;;8.77;2.63;;;28.90;62.60;;;;;;5014100;28;20033;-83
2023/12/11 05:58:07;;;;;;;9.68;2.75;;;28.80;62.90;;;;;;5014276;28;20018;-84
2023/12/11 06:00:34;;;;;;;10.60;2.47;;;28.70;63.40;;;;;;5027272;28;20507;-84
2023/12/11 06:03:02;;;;;;;11.10;2.20;;;28.50;63.40;;;;;;5025902;28;20033;-84
2023/12/11 06:05:29;;;;;;;9.25;2.38;;;28.40;63.90;;;;;;5011298;28;20044;-85
2023/12/11 06:07:57;;;;;;;9.20;2.40;;;28.30;64.10;;;;;;5011065;28;20116;-85
2023/12/11 06:10:29;;;;;;;9.60;2.40;;;28.20;64.10;;;;;;5010994;28;20022;-84
2023/12/11 06:12:56;;;;;;;10.32;2.10;;;28.10;64.60;;;;;;5014269;28;20424;-84
2023/12/11 06:15:24;;;;;;;5.43;2.22;;;28.00;65.00;;;;;;5013223;28;20026;-81
2023/12/11 06:17:51;;;;;;;9.00;2.38;;;27.80;65.40;;;;;;5013565;28;20022;-83
2023/12/11 06:20:18;;;;;;;10.95;2.58;;;27.80;65.80;;;;;;5018767;28;20033;-81
2023/12/11 06:22:49;;;;;;;12.07;2.88;;;27.70;66.00;;;;;;5017721;28;20445;-85
2023/12/11 06:25:16;;;;;;;12.48;2.25;;;27.70;66.30;;;;;;5013843;28;20064;-84
2023/12/11 06:27:44;;;;;;;8.73;2.22;;;27.60;66.40;;;;;;5012703;28;20068;-85
2023/12/11 06:30:12;;;;;;;10.35;2.80;;;27.60;66.50;;;;;;5013665;28;20080;-84
2023/12/11 06:32:39;;;;;;;8.30;2.50;;;27.60;66.50;;;;;;5015834;28;20503;-82
2023/12/11 06:35:07;;;;;;;11.48;3.08;;;27.60;66.60;;;;;;5012796;28;20087;-81
2023/12/11 06:37:35;;;;;;;10.52;2.60;;;27.70;66.70;;;;;;5012901;28;20088;-85
2023/12/11 06:40:03;;;;;;;8.82;2.17;;;27.70;66.70;;;;;;5013238;28;20026;-84
2023/12/11 06:42:37;;;;;;;10.55;2.47;;;27.70;66.70;;;;;;5024850;28;20409;-83
2023/12/11 06:45:07;;;;;;;10.63;2.53;;;27.70;66.70;;;;;;5033439;28;20025;-80
2023/12/11 06:47:36;;;;;;;10.57;2.45;;;27.70;66.60;;;;;;5016119;28;20522;-84
2023/12/11 06:50:03;;;;;;;8.05;2.08;;;27.50;66.70;;;;;;5016045;28;20036;-77
2023/12/11 06:52:31;;;;;;;11.68;2.70;;;27.40;67.20;;;;;;5011640;28;20065;-81
2023/12/11 06:54:59;;;;;;;13.38;3.30;;;27.40;67.40;;;;;;5013077;28;20116;-81
2023/12/11 06:57:27;;;;;;;9.60;2.33;;;27.30;67.10;;;;;;5013073;28;20116;-86
2023/12/11 06:59:54;;;;;;;9.00;2.75;;;27.20;67.50;;;;;;5013497;28;20137;-76
2023/12/11 07:02:21;;;;;;;10.77;2.55;;;27.20;67.60;;;;;;5013058;28;20424;-76
2023/12/11 07:04:49;;;;;;;8.95;2.78;;;27.10;67.70;;;;;;5025161;28;20496;-80
2023/12/11 07:07:18;;;;;;;11.57;3.40;;;27.00;67.80;;;;;;5012396;28;20030;-76
2023/12/11 07:09:47;;;;;;;9.88;5.15;;;26.90;67.90;;;;;;5012658;28;20037;-80
2023/12/11 07:12:14;;;;;;;10.52;5.38;;;26.80;68.20;;;;;;5016230;28;20025;-83
2023/12/11 07:14:43;;;;;;;10.02;5.32;;;26.80;68.60;;;;;;5014303;28;20461;-81
2023/12/11 07:17:11;;;;;;;11.73;7.13;;;26.80;68.80;;;;;;5012800;28;20435;-82
2023/12/11 07:19:39;;;;;;;10.77;7.63;;;26.80;69.10;;;;;;5022456;28;20025;-79
2023/12/11 07:22:07;;;;;;;12.55;8.10;;;26.80;69.10;;;;;;5019695;28;20057;-76
2023/12/11 07:24:35;;;;;;;14.57;10.18;;;26.80;69.20;;;;;;5020762;28;20049;-79
2023/12/11 07:27:03;;;;;;;14.00;11.10;;;26.80;69.20;;;;;;5021978;28;20030;-77
2023/12/11 07:29:30;;;;;;;15.18;10.60;;;26.80;69.10;;;;;;5023984;28;20070;-77
2023/12/11 07:31:58;;;;;;;14.95;11.55;;;26.80;69.30;;;;;;5023666;28;20029;-83
2023/12/11 07:34:25;;;;;;;13.85;11.57;;;26.80;69.10;;;;;;5042252;28;20029;-81
2023/12/11 07:36:52;;;;;;;16.90;11.02;;;26.70;69.20;;;;;;5023817;28;20022;-78
2023/12/11 07:39:21;;;;;;;18.98;12.60;;;26.70;69.30;;;;;;5018153;28;20026;-78
2023/12/11 07:41:48;;;;;;;16.85;11.98;;;26.60;69.30;;;;;;5018056;28;20026;-81
2023/12/11 07:44:15;;;;;;;12.50;11.10;;;26.60;69.70;;;;;;5027731;28;20447;-81
2023/12/11 07:46:48;;;;;;;13.07;10.63;;;26.60;69.80;;;;;;5028263;28;20083;-84
2023/12/11 07:49:21;;;;;;;13.60;9.93;;;26.50;69.80;;;;;;5019271;28;20030;-81
2023/12/11 07:51:49;;;;;;;14.73;8.43;;;26.50;70.00;;;;;;5021556;28;20092;-84
2023/12/11 07:54:17;;;;;;;16.05;8.93;;;26.40;70.00;;;;;;5017589;28;20034;-78
2023/12/11 07:56:46;;;;;;;17.40;9.20;;;26.30;70.20;;;;;;5012652;28;20025;-80
2023/12/11 07:59:13;;;;;;;13.18;7.57;;;26.30;70.30;;;;;;5012803;28;20542;-85
2023/12/11 08:01:40;;;;;;;10.88;5.60;;;26.30;70.40;;;;;;5011126;28;20079;-83
2023/12/11 08:04:08;;;;;;;7.75;3.72;;;26.30;70.20;;;;;;5012444;28;20045;-81
2023/12/11 08:06:43;;;;;;;9.05;3.75;;;26.30;69.80;;;;;;5010798;28;20440;-79
2023/12/11 08:09:11;;;;;;;7.80;3.65;;;26.20;69.80;;;;;;5007875;28;20064;-79
2023/12/11 08:11:40;;;;;;;9.18;3.15;;;26.20;69.60;;;;;;5013671;28;20037;-84
2023/12/11 08:14:07;;;;;;;8.23;2.80;;;26.20;69.60;;;;;;5008179;28;20504;-83
2023/12/11 08:16:34;;;;;;;9.80;2.92;;;26.10;69.40;;;;;;5013640;28;20022;-83
2023/12/11 08:19:02;;;;;;;11.55;3.50;;;26.10;69.60;;;;;;5019012;28;20037;-86
2023/12/11 08:21:33;;;;;;;10.93;2.67;;;26.00;69.60;;;;;;5025592;28;20079;-82
2023/12/11 08:24:00;;;;;;;12.48;3.55;;;26.10;70.00;;;;;;5024611;28;20022;-85
2023/12/11 08:26:27;;;;;;;12.65;2.80;;;26.10;70.10;;;;;;5015809;28;20103;-83
2023/12/11 08:28:55;;;;;;;11.70;2.72;;;26.10;70.30;;;;;;5018735;28;20040;-80
2023/12/11 08:31:22;;;;;;;12.90;3.08;;;26.10;70.60;;;;;;5029310;28;20076;-84
2023/12/11 08:33:49;;;;;;;8.43;2.40;;;26.00;70.70;;;;;;5033473;28;20440;-85
2023/12/11 08:36:18;;;;;;;7.57;2.60;;;26.00;71.00;;;;;;5015432;28;20084;-81
2023/12/11 08:38:45;;;;;;;15.70;2.80;;;26.00;71.00;;;;;;5020121;28;20029;-77
2023/12/11 08:41:12;;;;;;;10.82;3.00;;;26.10;71.10;;;;;;5020131;28;20021;-80
2023/12/11 08:43:40;;;;;;;9.85;2.55;;;26.00;71.10;;;;;;5021299;28;20156;-83
2023/12/11 08:46:07;;;;;;;9.75;2.33;;;26.00;71.30;;;;;;5014384;28;20026;-84
2023/12/11 08:48:36;;;;;;;8.70;2.72;;;26.00;71.40;;;;;;5022262;28;20029;-81
2023/12/11 08:51:06;;;;;;;9.23;2.10;;;26.00;71.50;;;;;;5019313;28;20157;-81
2023/12/11 08:53:33;;;;;;;8.18;2.10;;;26.00;71.60;;;;;;5020766;28;20030;-83
2023/12/11 08:56:01;;;;;;;6.03;1.95;;;26.00;71.80;;;;;;5012712;28;20377;-81
2023/12/11 08:58:28;;;;;;;11.63;2.20;;;26.00;71.70;;;;;;5014945;28;20041;-80
2023/12/11 09:00:56;;;;;;;11.55;2.38;;;26.00;71.70;;;;;;5027321;28;20092;-84
2023/12/11 09:03:23;;;;;;;15.00;3.08;;;26.00;72.00;;;;;;5013639;28;20037;-84
2023/12/11 09:05:51;;;;;;;11.98;2.33;;;26.00;72.20;;;;;;5013371;28;20519;-83
2023/12/11 09:08:39;;;;;;;8.75;2.35;;;26.00;72.50;;;;;;5014549;28;20037;-77
2023/12/11 09:11:07;;;;;;;7.65;2.45;;;26.00;72.50;;;;;;5017725;28;20058;-81
2023/12/11 09:13:35;;;;;;;14.52;2.50;;;26.00;72.60;;;;;;5013296;28;20030;-83
2023/12/11 09:16:03;;;;;;;9.90;2.03;;;25.90;72.80;;;;;;5014178;28;20061;-82
2023/12/11 09:18:34;;;;;;;12.93;2.50;;;25.90;72.90;;;;;;5015505;28;20022;-82
2023/12/11 09:21:01;;;;;;;11.77;2.25;;;25.90;73.30;;;;;;5012170;28;20507;-78
2023/12/11 09:23:29;;;;;;;8.32;2.10;;;25.90;73.40;;;;;;5013089;28;20021;-80
2023/12/11 09:25:56;;;;;;;7.22;2.17;;;25.90;73.30;;;;;;5013165;28;20030;-79
2023/12/11 09:28:24;;;;;;;12.73;2.20;;;25.90;73.40;;;;;;5013265;28;20041;-85
2023/12/11 09:30:52;;;;;;;10.25;2.30;;;25.80;73.40;;;;;;5027573;28;20049;-81
2023/12/11 09:33:20;;;;;;;10.50;2.38;;;25.90;73.50;;;;;;5033929;28;20030;-84
2023/12/11 09:35:47;;;;;;;8.35;1.88;;;25.80;73.80;;;;;;5017136;28;20018;-78
2023/12/11 09:38:14;;;;;;;7.03;1.95;;;25.90;73.80;;;;;;5012843;28;20032;-82
2023/12/11 09:40:42;;;;;;;13.40;2.95;;;25.90;73.80;;;;;;5025529;28;20473;-80
2023/12/11 09:43:10;;;;;;;10.60;2.08;;;25.90;74.10;;;;;;5028148;28;20385;-82
2023/12/11 09:45:38;;;;;;;13.15;2.80;;;25.90;73.90;;;;;;5006569;28;20029;-80
2023/12/11 09:48:06;;;;;;;11.63;2.80;;;25.80;74.10;;;;;;5014761;28;20037;-87
2023/12/11 09:50:36;;;;;;;12.65;2.88;;;25.80;74.30;;;;;;5015211;28;20393;-85
2023/12/11 09:53:04;;;;;;;11.55;2.45;;;25.80;74.50;;;;;;5014322;28;20045;-80
2023/12/11 09:55:32;;;;;;;7.63;2.20;;;25.80;74.80;;;;;;5016727;28;20037;-84
2023/12/11 09:57:59;;;;;;;8.80;2.25;;;25.80;74.70;;;;;;5014592;28;20017;-82
2023/12/11 10:00:27;;;;;;;8.70;2.60;;;25.80;74.80;;;;;;5015001;28;20160;-83
2023/12/11 10:02:55;;;;;;;11.68;2.60;;;25.80;74.80;;;;;;5015122;28;20048;-81
2023/12/11 10:05:26;;;;;;;14.10;2.45;;;25.80;75.40;;;;;;5013779;28;20053;-85
2023/12/11 10:07:53;;;;;;;10.25;2.90;;;25.70;75.20;;;;;;5015485;28;20149;-81
2023/12/11 10:10:25;;;;;;;11.82;2.92;;;25.80;75.30;;;;;;5015282;28;20022;-83
2023/12/11 10:12:54;;;;;;;13.13;2.38;;;25.80;75.40;;;;;;5013762;28;20092;-80
2023/12/11 10:15:26;;;;;;;12.20;2.33;;;25.80;75.40;;;;;;5017580;28;20033;-85
2023/12/11 10:18:07;;;;;;;14.00;2.40;;;25.80;75.40;;;;;;5012814;28;20084;-84
2023/12/11 10:20:36;;;;;;;9.75;2.33;;;25.80;75.40;;;;;;5014667;28;20447;-83
2023/12/11 10:23:20;;;;;;;8.02;2.10;;;25.80;75.30;;;;;;5014563;28;20030;-86
2023/12/11 10:25:53;;;;;;;11.48;2.30;;;25.80;75.30;;;;;;5026863;28;20029;-82
2023/12/11 10:28:24;;;;;;;9.75;2.60;;;25.80;75.20;;;;;;5017987;28;20034;-83
2023/12/11 10:30:58;;;;;;;10.93;2.13;;;25.80;75.30;;;;;;5021505;28;20084;-81
2023/12/11 10:33:27;;;;;;;12.18;2.60;;;25.80;75.20;;;;;;5015548;28;20116;-83
2023/12/11 10:36:12;;;;;;;11.60;2.28;;;25.80;75.30;;;;;;5020412;28;20044;-82
2023/12/11 10:38:40;;;;;;;11.73;2.38;;;25.80;75.70;;;;;;5012832;28;20421;-81
2023/12/11 10:41:07;;;;;;;14.63;2.55;;;25.70;75.80;;;;;;5020205;28;20045;-88
2023/12/11 10:43:42;;;;;;;13.85;2.72;;;25.70;76.00;;;;;;5011793;28;20385;-79
2023/12/11 10:46:10;;;;;;;8.88;2.35;;;25.70;76.30;;;;;;5012457;28;20112;-84
2023/12/11 10:48:37;;;;;;;13.15;3.33;;;25.60;76.30;;;;;;5011823;28;20042;-79
2023/12/11 10:51:05;;;;;;;12.93;2.75;;;25.70;76.50;;;;;;5017222;28;20052;-85
2023/12/11 10:53:34;;;;;;;11.95;2.13;;;25.60;76.50;;;;;;5016237;28;20036;-82
2023/12/11 10:56:03;;;;;;;8.63;2.15;;;25.60;76.30;;;;;;5014093;28;20041;-79
2023/12/11 10:58:30;;;;;;;7.13;1.98;;;25.60;76.40;;;;;;5017653;28;20032;-83
2023/12/11 11:01:01;;;;;;;11.32;2.20;;;25.60;76.50;;;;;;5014329;28;20484;-85
2023/12/11 11:03:33;;;;;;;14.98;2.97;;;25.60;76.90;;;;;;5011055;28;20117;-79
2023/12/11 11:06:01;;;;;;;12.40;2.47;;;25.60;77.00;;;;;;5014200;28;20034;-76
2023/12/11 11:08:51;;;;;;;12.23;2.60;;;25.60;77.10;;;;;;5011860;28;20030;-81
2023/12/11 11:11:32;;;;;;;13.68;2.60;;;25.60;77.10;;;;;;5007929;28;20021;-84
2023/12/11 11:14:36;;;;;;;9.32;2.35;;;25.60;77.10;;;;;;5002661;28;20026;-80
2023/12/11 11:17:03;;;;;;;11.73;2.10;;;25.50;77.40;;;;;;5010826;28;20033;-84
2023/12/11 11:19:31;;;;;;;17.48;2.58;;;25.50;77.20;;;;;;5008405;28;20025;-76
2023/12/11 11:22:03;;;;;;;14.40;2.50;;;25.50;77.30;;;;;;5011828;28;20036;-77
2023/12/11 11:24:33;;;;;;;14.13;2.65;;;25.50;77.30;;;;;;5013657;28;20038;-77
2023/12/11 11:27:02;;;;;;;13.02;2.60;;;25.50;77.50;;;;;;5022710;28;20021;-77
2023/12/11 11:29:44;;;;;;;12.45;3.20;;;25.40;77.70;;;;;;5020126;28;20033;-78
2023/12/11 11:32:12;;;;;;;13.50;2.70;;;25.40;77.60;;;;;;5015546;28;20026;-77
2023/12/11 11:34:43;;;;;;;10.20;2.40;;;25.30;77.70;;;;;;5012598;28;20465;-76
2023/12/11 11:37:36;;;;;;;9.35;2.40;;;25.30;77.90;;;;;;5018814;28;20022;-77
2023/12/11 11:40:06;;;;;;;10.20;2.60;;;25.30;78.00;;;;;;5030117;28;20056;-76
2023/12/11 11:42:35;;;;;;;16.40;2.47;;;25.30;78.00;;;;;;5013848;28;20025;-82
2023/12/11 11:45:07;;;;;;;13.02;2.50;;;25.30;78.10;;;;;;5019920;28;20026;-77
2023/12/11 11:47:35;;;;;;;11.98;2.33;;;25.30;78.00;;;;;;5022311;28;20030;-77
2023/12/11 11:50:11;;;;;;;16.75;2.67;;;25.30;78.10;;;;;;5011822;28;20034;-76
2023/12/11 11:52:41;;;;;;;15.82;2.58;;;25.30;78.30;;;;;;5012475;28;20060;-76
2023/12/11 11:55:26;;;;;;;10.98;2.88;;;25.30;78.60;;;;;;5014633;28;20028;-78
2023/12/11 11:57:54;;;;;;;11.60;2.30;;;25.30;78.50;;;;;;5017204;28;20033;-79
2023/12/11 12:00:31;;;;;;;9.73;2.45;;;25.20;78.70;;;;;;5013494;28;20646;-84
2023/12/11 12:03:00;;;;;;;6.75;1.95;;;25.20;78.90;;;;;;5014345;28;20041;-77
2023/12/11 12:05:28;;;;;;;16.98;3.58;;;25.20;78.70;;;;;;5015479;28;20037;-76
2023/12/11 12:07:55;;;;;;;9.35;1.88;;;25.20;79.00;;;;;;5014705;28;20474;-76
2023/12/11 12:10:23;;;;;;;9.75;2.13;;;25.20;78.80;;;;;;5018001;28;20116;-83
2023/12/11 12:13:00;;;;;;;13.95;2.53;;;25.20;78.90;;;;;;5017177;28;20026;-77
2023/12/11 12:15:28;;;;;;;11.95;2.20;;;25.20;79.10;;;;;;5026726;28;20025;-76
2023/12/11 12:18:16;;;;;;;9.60;2.15;;;25.10;79.10;;;;;;5013624;28;20037;-81
2023/12/11 12:20:43;;;;;;;12.10;2.35;;;25.20;79.20;;;;;;5018389;28;20376;-77
2023/12/11 12:23:11;;;;;;;11.90;2.03;;;25.10;79.10;;;;;;5018989;28;20869;-76
2023/12/11 12:25:39;;;;;;;11.93;2.20;;;25.20;79.20;;;;;;5019589;28;20022;-83
2023/12/11 12:28:13;;;;;;;12.50;2.55;;;25.10;79.30;;;;;;5015409;28;20037;-77
2023/12/11 12:30:41;;;;;;;14.88;2.47;;;25.10;79.40;;;;;;5015783;28;20030;-83
2023/12/11 12:33:11;;;;;;;13.43;2.53;;;25.10;79.50;;;;;;5028949;28;20473;-84
2023/12/11 12:35:40;;;;;;;15.20;2.65;;;25.10;79.60;;;;;;5035745;28;20370;-84
2023/12/11 12:38:08;;;;;;;14.20;2.42;;;25.10;80.00;;;;;;5024100;28;20030;-77
2023/12/11 12:40:36;;;;;;;11.38;2.42;;;25.10;80.40;;;;;;5025059;28;20077;-79
2023/12/11 12:43:13;;;;;;;10.25;2.20;;;25.10;80.70;;;;;;5014908;28;20021;-79
2023/12/11 12:45:41;;;;;;;7.57;2.10;;;25.00;81.20;;;;;;5011390;28;20022;-78
2023/12/11 12:48:09;;;;;;;12.77;2.35;;;25.00;81.60;;;;;;5024383;28;20044;-85
2023/12/11 12:50:37;;;;;;;10.75;2.13;;;25.00;81.70;;;;;;5028348;28;20026;-85